Time;durP1;ratioP1;P1;durP2;ratioP2;P2;SDS_P1;SDS_P2;PMS_P1;PMS_P2;Temp;Humidity;BMP_temperature;BMP_pressure;BME280_temperature;BME280_humidity;BME280_pressure;Samples;Min_cycle;Max_cycle;Signal;HPM_P1;HPM_P2
2023/05/12 00:00:16;;;;;;;17.35;9.85;;;;;;;;;;4954767;28;25131;-76
2023/05/12 00:02:43;;;;;;;16.85;11.50;;;;;;;;;;4960919;28;25061;-75
2023/05/12 00:05:09;;;;;;;15.80;9.38;;;;;;;;;;4961771;28;25073;-77
2023/05/12 00:07:36;;;;;;;14.00;9.30;;;;;;;;;;4959748;28;25135;-77
2023/05/12 00:10:02;;;;;;;18.38;9.55;;;;;;;;;;4953975;28;25063;-77
2023/05/12 00:12:28;;;;;;;20.63;10.73;;;;;;;;;;4956316;28;25055;-77
2023/05/12 00:14:55;;;;;;;17.35;10.10;;;;;;;;;;4955540;28;25085;-76
2023/05/12 00:17:21;;;;;;;16.92;11.15;;;;;;;;;;4955044;28;25066;-76
2023/05/12 00:19:47;;;;;;;21.00;11.93;;;;;;;;;;4958477;28;25079;-74
2023/05/12 00:22:13;;;;;;;23.05;13.73;;;;;;;;;;4960789;28;25068;-76
2023/05/12 00:24:39;;;;;;;21.58;12.57;;;;;;;;;;4961279;28;25061;-75
2023/05/12 00:27:06;;;;;;;23.33;12.10;;;;;;;;;;4962754;28;25082;-76
2023/05/12 00:29:33;;;;;;;18.33;10.20;;;;;;;;;;4960992;28;25078;-76
2023/05/12 00:31:59;;;;;;;19.77;8.68;;;;;;;;;;4959870;28;25159;-74
2023/05/12 00:34:26;;;;;;;18.67;8.27;;;;;;;;;;4958882;28;25194;-78
2023/05/12 00:36:53;;;;;;;12.80;6.38;;;;;;;;;;4962558;28;25119;-76
2023/05/12 00:39:19;;;;;;;12.88;5.88;;;;;;;;;;4962802;28;25065;-76
2023/05/12 00:41:46;;;;;;;10.98;5.75;;;;;;;;;;4957574;28;25065;-76
2023/05/12 00:44:12;;;;;;;13.68;5.60;;;;;;;;;;4954482;28;25073;-77
2023/05/12 00:46:38;;;;;;;8.70;4.93;;;;;;;;;;4978492;28;25070;-74
2023/05/12 00:49:04;;;;;;;7.60;4.78;;;;;;;;;;4951878;28;25067;-77
2023/05/12 00:51:31;;;;;;;10.13;5.75;;;;;;;;;;4967818;28;25065;-76
2023/05/12 00:53:57;;;;;;;10.30;5.22;;;;;;;;;;4954509;28;25071;-76
2023/05/12 00:56:23;;;;;;;11.13;5.97;;;;;;;;;;4955683;28;25111;-76
2023/05/12 00:58:49;;;;;;;12.70;6.32;;;;;;;;;;4955748;28;25102;-73
2023/05/12 01:01:15;;;;;;;13.23;6.38;;;;;;;;;;4951974;28;25067;-75
2023/05/12 01:03:41;;;;;;;11.40;6.63;;;;;;;;;;4954044;28;25118;-77
2023/05/12 01:06:27;;;;;;;12.43;6.68;;;;;;;;;;4955735;28;25077;-76
2023/05/12 01:08:53;;;;;;;11.93;5.85;;;;;;;;;;4953621;28;25069;-75
2023/05/12 01:11:20;;;;;;;12.07;5.97;;;;;;;;;;4963502;28;25147;-75
2023/05/12 01:13:46;;;;;;;10.35;6.22;;;;;;;;;;4956540;28;25054;-76
2023/05/12 01:16:17;;;;;;;11.25;5.55;;;;;;;;;;4959083;28;25140;-75
2023/05/12 01:18:48;;;;;;;9.48;5.63;;;;;;;;;;4962768;28;25067;-75
2023/05/12 01:21:15;;;;;;;12.10;5.43;;;;;;;;;;4957463;28;25175;-75
2023/05/12 01:23:44;;;;;;;10.70;5.10;;;;;;;;;;4956641;28;25076;-74
2023/05/12 01:26:10;;;;;;;6.88;4.55;;;;;;;;;;4962140;28;25076;-74
2023/05/12 01:28:37;;;;;;;8.80;4.97;;;;;;;;;;4955174;28;25081;-75
2023/05/12 01:31:03;;;;;;;9.13;5.38;;;;;;;;;;4955410;28;25059;-74
2023/05/12 01:33:29;;;;;;;12.15;6.13;;;;;;;;;;4957407;28;25099;-75
2023/05/12 01:35:55;;;;;;;8.38;5.53;;;;;;;;;;4969285;28;25063;-75
2023/05/12 01:38:21;;;;;;;9.30;5.85;;;;;;;;;;4955901;28;25078;-73
2023/05/12 01:40:47;;;;;;;8.18;5.28;;;;;;;;;;4959347;28;25114;-73
2023/05/12 01:43:13;;;;;;;9.63;5.82;;;;;;;;;;4962470;28;25140;-73
2023/05/12 01:45:39;;;;;;;11.25;5.35;;;;;;;;;;4960984;28;25170;-74
2023/05/12 01:48:05;;;;;;;8.73;5.28;;;;;;;;;;4963804;28;25124;-74
2023/05/12 01:50:31;;;;;;;10.90;5.80;;;;;;;;;;4960266;28;25074;-75
2023/05/12 01:52:57;;;;;;;12.93;5.70;;;;;;;;;;4952267;28;25059;-74
2023/05/12 01:55:23;;;;;;;11.07;5.85;;;;;;;;;;4961953;28;25064;-75
2023/05/12 01:57:49;;;;;;;9.02;5.38;;;;;;;;;;4958701;28;25053;-74
2023/05/12 02:00:15;;;;;;;15.25;6.72;;;;;;;;;;4955763;28;25135;-75
2023/05/12 02:02:41;;;;;;;12.27;6.70;;;;;;;;;;4952869;28;25079;-74
2023/05/12 02:05:08;;;;;;;15.32;6.95;;;;;;;;;;4956290;28;25051;-74
2023/05/12 02:07:34;;;;;;;11.45;6.38;;;;;;;;;;4956493;28;25142;-75
2023/05/12 02:09:59;;;;;;;15.95;7.50;;;;;;;;;;4962622;28;25104;-74
2023/05/12 02:12:25;;;;;;;13.32;7.15;;;;;;;;;;4977041;28;25072;-74
2023/05/12 02:14:51;;;;;;;17.77;7.68;;;;;;;;;;4957907;28;25084;-74
2023/05/12 02:17:17;;;;;;;17.20;7.65;;;;;;;;;;4959283;28;25167;-73
2023/05/12 02:19:43;;;;;;;13.40;7.28;;;;;;;;;;4963708;28;25075;-74
2023/05/12 02:22:09;;;;;;;11.15;6.68;;;;;;;;;;4966066;28;25079;-72
2023/05/12 02:24:35;;;;;;;13.05;6.97;;;;;;;;;;4960662;28;25053;-76
2023/05/12 02:27:01;;;;;;;15.00;7.78;;;;;;;;;;4959283;28;25106;-74
2023/05/12 02:29:27;;;;;;;13.13;6.82;;;;;;;;;;4955867;28;25085;-72
2023/05/12 02:31:53;;;;;;;14.18;7.10;;;;;;;;;;4956616;28;25066;-73
2023/05/12 02:34:19;;;;;;;13.65;6.75;;;;;;;;;;4958778;28;25060;-72
2023/05/12 02:36:45;;;;;;;13.80;7.30;;;;;;;;;;4955147;28;25052;-72
2023/05/12 02:39:12;;;;;;;13.23;6.47;;;;;;;;;;4961748;28;25070;-72
2023/05/12 02:41:38;;;;;;;14.32;7.57;;;;;;;;;;4959187;28;25056;-73
2023/05/12 02:44:04;;;;;;;14.02;7.10;;;;;;;;;;4959143;28;25055;-75
2023/05/12 02:46:30;;;;;;;14.98;7.15;;;;;;;;;;4963785;28;25059;-72
2023/05/12 02:48:56;;;;;;;14.20;6.80;;;;;;;;;;4961384;28;25134;-74
2023/05/12 02:51:22;;;;;;;16.48;7.85;;;;;;;;;;4960471;28;25155;-74
2023/05/12 02:53:48;;;;;;;17.50;8.35;;;;;;;;;;4957411;28;25087;-72
2023/05/12 02:56:14;;;;;;;20.70;8.60;;;;;;;;;;4954687;28;25077;-73
2023/05/12 02:58:39;;;;;;;14.25;7.85;;;;;;;;;;4960373;28;25150;-74
2023/05/12 03:01:05;;;;;;;23.13;9.77;;;;;;;;;;4953638;28;25146;-75
2023/05/12 03:03:32;;;;;;;18.10;9.20;;;;;;;;;;4959066;28;25099;-74
2023/05/12 03:05:58;;;;;;;21.20;9.73;;;;;;;;;;4954521;28;25063;-73
2023/05/12 03:08:25;;;;;;;18.95;9.27;;;;;;;;;;4957865;28;25076;-74
2023/05/12 03:10:51;;;;;;;23.13;10.07;;;;;;;;;;4953844;28;25080;-72
2023/05/12 03:13:17;;;;;;;21.42;9.85;;;;;;;;;;4961604;28;25069;-72
2023/05/12 03:15:43;;;;;;;20.48;10.20;;;;;;;;;;4958330;28;25095;-75
2023/05/12 03:18:09;;;;;;;21.77;9.80;;;;;;;;;;4958418;28;25094;-73
2023/05/12 03:20:35;;;;;;;24.13;10.30;;;;;;;;;;4953743;28;25086;-72
2023/05/12 03:23:02;;;;;;;21.20;10.52;;;;;;;;;;4953527;28;25062;-74
2023/05/12 03:25:28;;;;;;;28.27;11.70;;;;;;;;;;4956336;28;25086;-74
2023/05/12 03:27:54;;;;;;;22.23;12.27;;;;;;;;;;4956994;28;25066;-75
2023/05/12 03:30:20;;;;;;;21.70;11.55;;;;;;;;;;4953581;28;25072;-78
2023/05/12 03:32:46;;;;;;;29.50;12.40;;;;;;;;;;4953549;28;25091;-73
2023/05/12 03:35:12;;;;;;;19.73;10.73;;;;;;;;;;4954519;28;25056;-73
2023/05/12 03:37:38;;;;;;;21.30;10.85;;;;;;;;;;4961586;28;25096;-74
2023/05/12 03:40:06;;;;;;;22.48;11.98;;;;;;;;;;4957451;28;25077;-74
2023/05/12 03:42:32;;;;;;;22.10;10.15;;;;;;;;;;4962115;28;25076;-72
2023/05/12 03:44:58;;;;;;;21.52;10.60;;;;;;;;;;4955646;28;25095;-72
2023/05/12 03:47:23;;;;;;;19.70;9.73;;;;;;;;;;4952160;28;25074;-71
2023/05/12 03:49:51;;;;;;;20.67;9.55;;;;;;;;;;4953259;28;25100;-76
2023/05/12 03:52:17;;;;;;;19.00;9.95;;;;;;;;;;4955014;28;25100;-74
2023/05/12 03:54:43;;;;;;;21.95;10.43;;;;;;;;;;4959867;28;25066;-73
2023/05/12 03:57:09;;;;;;;18.90;8.95;;;;;;;;;;4956646;28;25058;-73
2023/05/12 03:59:35;;;;;;;19.38;8.73;;;;;;;;;;4952872;28;25094;-74
2023/05/12 04:02:01;;;;;;;18.92;9.23;;;;;;;;;;4958192;28;25059;-73
2023/05/12 04:04:27;;;;;;;22.52;8.18;;;;;;;;;;4964166;28;25064;-72
2023/05/12 04:06:53;;;;;;;12.85;7.05;;;;;;;;;;4955009;28;25060;-71
2023/05/12 04:09:20;;;;;;;12.48;7.80;;;;;;;;;;4959211;28;25073;-74
2023/05/12 04:11:46;;;;;;;12.70;8.20;;;;;;;;;;4951155;28;25129;-74
2023/05/12 04:14:12;;;;;;;13.02;8.18;;;;;;;;;;4959297;28;25095;-73
2023/05/12 04:16:39;;;;;;;15.23;7.72;;;;;;;;;;4961590;28;25072;-72
2023/05/12 04:19:06;;;;;;;14.18;8.73;;;;;;;;;;4955842;28;25090;-73
2023/05/12 04:21:32;;;;;;;13.40;7.57;;;;;;;;;;4966098;28;25062;-72
2023/05/12 04:23:58;;;;;;;14.57;8.48;;;;;;;;;;4952904;28;25073;-73
2023/05/12 04:26:25;;;;;;;14.68;8.10;;;;;;;;;;4951928;28;25072;-75
2023/05/12 04:28:52;;;;;;;20.42;9.43;;;;;;;;;;4953597;28;25057;-75
2023/05/12 04:31:17;;;;;;;17.63;8.73;;;;;;;;;;4950825;28;25050;-73
2023/05/12 04:33:43;;;;;;;16.92;9.57;;;;;;;;;;4950753;28;25057;-72
2023/05/12 04:36:12;;;;;;;20.63;10.10;;;;;;;;;;4952786;28;25065;-74
2023/05/12 04:38:38;;;;;;;17.83;9.60;;;;;;;;;;4952687;28;25055;-73
2023/05/12 04:41:05;;;;;;;18.45;9.85;;;;;;;;;;4953713;28;25086;-74
2023/05/12 04:43:31;;;;;;;19.05;10.02;;;;;;;;;;4956671;28;25099;-74
2023/05/12 04:45:57;;;;;;;17.27;9.13;;;;;;;;;;4953773;28;25096;-72
2023/05/12 04:48:23;;;;;;;17.10;9.52;;;;;;;;;;4950867;28;25058;-73
2023/05/12 04:50:49;;;;;;;15.45;9.88;;;;;;;;;;4952873;28;25092;-73
2023/05/12 04:53:15;;;;;;;21.08;10.88;;;;;;;;;;4956848;28;25111;-76
2023/05/12 04:55:44;;;;;;;21.92;11.85;;;;;;;;;;4957834;28;25070;-77
2023/05/12 04:58:10;;;;;;;21.05;11.35;;;;;;;;;;4957735;28;25131;-76
2023/05/12 05:00:36;;;;;;;28.25;13.18;;;;;;;;;;4954327;28;25117;-73
2023/05/12 05:03:02;;;;;;;22.02;11.50;;;;;;;;;;4956552;28;25094;-73
2023/05/12 05:05:28;;;;;;;23.33;13.05;;;;;;;;;;4957184;28;25082;-73
2023/05/12 05:07:54;;;;;;;25.85;12.35;;;;;;;;;;4958243;28;25061;-76
2023/05/12 05:10:20;;;;;;;27.70;12.43;;;;;;;;;;4956796;28;25102;-72
2023/05/12 05:12:46;;;;;;;25.42;12.95;;;;;;;;;;4955754;28;25055;-74
2023/05/12 05:15:12;;;;;;;29.05;13.32;;;;;;;;;;4957887;28;25114;-74
2023/05/12 05:17:38;;;;;;;33.22;14.80;;;;;;;;;;4962088;28;25047;-73
2023/05/12 05:20:06;;;;;;;33.15;14.15;;;;;;;;;;4961371;28;25107;-74
2023/05/12 05:22:32;;;;;;;35.33;15.93;;;;;;;;;;4951545;28;25136;-71
2023/05/12 05:24:58;;;;;;;36.55;14.75;;;;;;;;;;4954861;28;25104;-74
2023/05/12 05:27:24;;;;;;;35.42;14.50;;;;;;;;;;4956354;28;25058;-72
2023/05/12 05:29:50;;;;;;;33.38;16.50;;;;;;;;;;4960612;28;25081;-70
2023/05/12 05:32:16;;;;;;;34.15;15.30;;;;;;;;;;4953660;28;25072;-72
2023/05/12 05:34:42;;;;;;;37.25;16.52;;;;;;;;;;4964883;28;25081;-72
2023/05/12 05:37:08;;;;;;;39.17;16.77;;;;;;;;;;4958169;28;25110;-72
2023/05/12 05:39:35;;;;;;;46.13;17.85;;;;;;;;;;4953818;28;25127;-73
2023/05/12 05:42:01;;;;;;;44.75;17.55;;;;;;;;;;4953301;28;25107;-70
2023/05/12 05:44:27;;;;;;;42.20;17.00;;;;;;;;;;4953791;28;25078;-73
2023/05/12 05:46:53;;;;;;;43.78;17.80;;;;;;;;;;4952103;28;25139;-72
2023/05/12 05:49:19;;;;;;;47.00;18.67;;;;;;;;;;4950452;28;25158;-72
2023/05/12 05:51:45;;;;;;;43.05;18.45;;;;;;;;;;4950618;28;25081;-72
2023/05/12 05:54:11;;;;;;;51.65;18.13;;;;;;;;;;4950148;28;25089;-72
2023/05/12 05:56:37;;;;;;;44.50;19.00;;;;;;;;;;4951943;28;25060;-70
2023/05/12 05:59:04;;;;;;;46.20;19.08;;;;;;;;;;4947913;28;25076;-73
2023/05/12 06:01:30;;;;;;;47.38;18.83;;;;;;;;;;4952042;28;25062;-72
2023/05/12 06:03:56;;;;;;;50.13;18.60;;;;;;;;;;4951074;28;25134;-74
2023/05/12 06:06:22;;;;;;;46.53;18.63;;;;;;;;;;4950601;28;25101;-72
2023/05/12 06:08:48;;;;;;;50.03;20.55;;;;;;;;;;4951749;28;25144;-72
2023/05/12 06:11:15;;;;;;;40.88;17.85;;;;;;;;;;4953939;28;25108;-71
2023/05/12 06:13:41;;;;;;;58.58;20.83;;;;;;;;;;4951661;28;25071;-72
2023/05/12 06:16:07;;;;;;;47.35;20.30;;;;;;;;;;4950896;28;25153;-68
2023/05/12 06:18:36;;;;;;;44.97;20.50;;;;;;;;;;4952712;28;25083;-71
2023/05/12 06:21:02;;;;;;;44.78;20.33;;;;;;;;;;4954131;28;25084;-74
2023/05/12 06:23:28;;;;;;;52.40;20.52;;;;;;;;;;4964536;28;25063;-71
2023/05/12 06:25:54;;;;;;;50.35;21.63;;;;;;;;;;4951854;28;25070;-72
2023/05/12 06:28:20;;;;;;;43.95;20.00;;;;;;;;;;4952531;28;25099;-71
2023/05/12 06:30:46;;;;;;;52.38;21.65;;;;;;;;;;4959278;28;25070;-73
2023/05/12 06:33:12;;;;;;;42.25;19.85;;;;;;;;;;4950453;28;25124;-71
2023/05/12 06:35:38;;;;;;;53.00;21.77;;;;;;;;;;4952038;28;25074;-72
2023/05/12 06:38:04;;;;;;;50.38;20.02;;;;;;;;;;4955222;28;25105;-72
2023/05/12 06:40:29;;;;;;;43.85;20.15;;;;;;;;;;4953295;28;25076;-73
2023/05/12 06:42:55;;;;;;;49.63;20.80;;;;;;;;;;4954947;28;25091;-72
2023/05/12 06:45:22;;;;;;;53.47;20.40;;;;;;;;;;4950874;28;25100;-72
2023/05/12 06:47:48;;;;;;;48.40;21.17;;;;;;;;;;4970530;28;25041;-74
2023/05/12 06:50:15;;;;;;;55.88;21.17;;;;;;;;;;4952143;28;25064;-72
2023/05/12 06:52:41;;;;;;;50.35;22.27;;;;;;;;;;4956602;28;25062;-71
2023/05/12 06:55:07;;;;;;;47.38;22.33;;;;;;;;;;4953077;28;25072;-71
2023/05/12 06:57:33;;;;;;;48.63;20.90;;;;;;;;;;4953790;28;25143;-71
2023/05/12 07:00:01;;;;;;;56.33;24.42;;;;;;;;;;4955852;28;25067;-71
2023/05/12 07:02:27;;;;;;;52.45;20.13;;;;;;;;;;4956605;28;25078;-75
2023/05/12 07:04:53;;;;;;;54.47;20.23;;;;;;;;;;4966744;28;25110;-70
2023/05/12 07:07:19;;;;;;;50.92;21.90;;;;;;;;;;4958683;28;25150;-70
2023/05/12 07:09:45;;;;;;;46.38;20.73;;;;;;;;;;4960545;28;25059;-71
2023/05/12 07:12:11;;;;;;;50.60;22.02;;;;;;;;;;4957900;28;25053;-71
2023/05/12 07:14:37;;;;;;;49.58;21.50;;;;;;;;;;4968608;28;25070;-72
2023/05/12 07:17:03;;;;;;;48.60;20.80;;;;;;;;;;4958277;28;25102;-72
2023/05/12 07:19:29;;;;;;;43.00;19.35;;;;;;;;;;4962312;28;25078;-73
2023/05/12 07:21:55;;;;;;;45.00;20.70;;;;;;;;;;4959824;28;25068;-72
2023/05/12 07:24:21;;;;;;;46.72;20.65;;;;;;;;;;4958828;28;25076;-71
2023/05/12 07:26:47;;;;;;;42.20;20.08;;;;;;;;;;4961359;28;25047;-72
2023/05/12 07:29:13;;;;;;;44.35;19.70;;;;;;;;;;4962662;28;25065;-72
2023/05/12 07:31:39;;;;;;;44.00;21.70;;;;;;;;;;4963791;28;25063;-72
2023/05/12 07:34:06;;;;;;;49.50;21.25;;;;;;;;;;4956602;28;25149;-73
2023/05/12 07:36:32;;;;;;;48.90;20.73;;;;;;;;;;4965693;28;25156;-72
2023/05/12 07:38:57;;;;;;;45.85;20.73;;;;;;;;;;4964071;28;25065;-71
2023/05/12 07:41:23;;;;;;;44.65;20.58;;;;;;;;;;4963432;28;25068;-72
2023/05/12 07:43:49;;;;;;;61.15;23.08;;;;;;;;;;4961201;28;25055;-71
2023/05/12 07:46:15;;;;;;;49.60;21.13;;;;;;;;;;4962863;28;25078;-73
2023/05/12 07:48:41;;;;;;;51.97;22.35;;;;;;;;;;4964112;28;25075;-71
2023/05/12 07:51:08;;;;;;;53.92;22.17;;;;;;;;;;4966641;28;25057;-74
2023/05/12 07:53:34;;;;;;;132.50;29.52;;;;;;;;;;4959664;28;25118;-73
2023/05/12 07:56:00;;;;;;;45.38;20.50;;;;;;;;;;4959459;28;25059;-73
2023/05/12 07:58:26;;;;;;;43.67;19.85;;;;;;;;;;4967765;28;25077;-73
2023/05/12 08:00:53;;;;;;;59.67;21.27;;;;;;;;;;4963408;28;25060;-73
2023/05/12 08:03:19;;;;;;;33.83;17.92;;;;;;;;;;4960643;28;25066;-73
2023/05/12 08:05:45;;;;;;;32.45;18.70;;;;;;;;;;4961310;28;25028;-72
2023/05/12 08:08:15;;;;;;;40.05;18.65;;;;;;;;;;4968077;28;25083;-73
2023/05/12 08:10:41;;;;;;;44.63;20.48;;;;;;;;;;4968212;28;25048;-72
2023/05/12 08:13:08;;;;;;;33.72;18.98;;;;;;;;;;4974263;28;25066;-73
2023/05/12 08:15:35;;;;;;;33.95;19.45;;;;;;;;;;4971997;28;25095;-73
2023/05/12 08:18:00;;;;;;;31.48;17.92;;;;;;;;;;4980374;28;25054;-73
2023/05/12 08:20:26;;;;;;;33.38;17.70;;;;;;;;;;4972969;28;25079;-74
2023/05/12 08:22:52;;;;;;;38.55;17.88;;;;;;;;;;4974239;28;25072;-73
2023/05/12 08:25:18;;;;;;;30.45;16.20;;;;;;;;;;4973605;28;25067;-73
2023/05/12 08:27:44;;;;;;;30.10;16.27;;;;;;;;;;4980917;28;25067;-71
2023/05/12 08:30:11;;;;;;;42.13;18.80;;;;;;;;;;4981293;28;25087;-73
2023/05/12 08:32:37;;;;;;;35.83;17.50;;;;;;;;;;4976195;28;25064;-73
2023/05/12 08:35:03;;;;;;;31.67;16.52;;;;;;;;;;4978159;28;25054;-74
2023/05/12 08:37:29;;;;;;;30.48;16.27;;;;;;;;;;4980482;28;25069;-73
2023/05/12 08:39:56;;;;;;;29.80;16.00;;;;;;;;;;4979059;28;25075;-73
2023/05/12 08:42:22;;;;;;;28.38;16.80;;;;;;;;;;4989657;28;25062;-72
2023/05/12 08:44:48;;;;;;;27.63;15.38;;;;;;;;;;4977118;28;25078;-75
2023/05/12 08:47:15;;;;;;;23.90;12.90;;;;;;;;;;4974205;28;25164;-73
2023/05/12 08:49:42;;;;;;;25.17;13.70;;;;;;;;;;4975849;28;25092;-74
2023/05/12 08:52:08;;;;;;;19.23;11.40;;;;;;;;;;4970069;28;25093;-74
2023/05/12 08:54:35;;;;;;;19.40;11.73;;;;;;;;;;4968929;28;25102;-74
2023/05/12 08:57:01;;;;;;;22.60;12.98;;;;;;;;;;4967452;28;25075;-73
2023/05/12 08:59:27;;;;;;;23.77;12.95;;;;;;;;;;4969915;28;25083;-74
2023/05/12 09:01:54;;;;;;;26.60;13.48;;;;;;;;;;4977528;28;25060;-75
2023/05/12 09:04:20;;;;;;;16.27;11.00;;;;;;;;;;4970861;28;25060;-74
2023/05/12 09:06:47;;;;;;;17.70;10.38;;;;;;;;;;4983655;28;25083;-74
2023/05/12 09:09:14;;;;;;;14.23;9.63;;;;;;;;;;4977350;28;25082;-74
2023/05/12 09:11:41;;;;;;;18.35;11.35;;;;;;;;;;4972238;28;25081;-75
2023/05/12 09:14:08;;;;;;;12.88;8.80;;;;;;;;;;4961903;28;25067;-73
2023/05/12 09:16:39;;;;;;;14.82;9.88;;;;;;;;;;4959299;28;25102;-71
2023/05/12 09:19:05;;;;;;;17.50;10.38;;;;;;;;;;4956413;28;25155;-74
2023/05/12 09:21:32;;;;;;;13.63;9.63;;;;;;;;;;4956963;28;25091;-72
2023/05/12 09:24:00;;;;;;;28.27;12.70;;;;;;;;;;4949259;28;25053;-73
2023/05/12 09:26:27;;;;;;;12.63;9.30;;;;;;;;;;4955932;28;25056;-74
2023/05/12 09:29:07;;;;;;;15.68;9.68;;;;;;;;;;4948090;28;25073;-73
2023/05/12 09:31:34;;;;;;;17.55;10.43;;;;;;;;;;4948391;28;25082;-74
2023/05/12 09:34:01;;;;;;;15.50;9.50;;;;;;;;;;4948716;28;25082;-73
2023/05/12 09:36:27;;;;;;;13.73;9.05;;;;;;;;;;4948770;28;25105;-73
2023/05/12 09:39:03;;;;;;;14.50;8.63;;;;;;;;;;4964361;28;25073;-72
2023/05/12 09:41:29;;;;;;;15.55;8.55;;;;;;;;;;4952021;28;25071;-71
2023/05/12 09:43:55;;;;;;;17.10;7.60;;;;;;;;;;4965473;28;25080;-74
2023/05/12 09:46:23;;;;;;;19.25;9.23;;;;;;;;;;4950486;28;25094;-72
2023/05/12 09:48:49;;;;;;;11.48;7.60;;;;;;;;;;4952275;28;25054;-73
2023/05/12 09:51:18;;;;;;;13.18;7.50;;;;;;;;;;4959827;28;25152;-72
2023/05/12 09:53:45;;;;;;;10.95;5.80;;;;;;;;;;4957317;28;25054;-73
2023/05/12 09:56:15;;;;;;;7.03;5.50;;;;;;;;;;4951828;28;25169;-71
2023/05/12 09:58:43;;;;;;;11.13;5.38;;;;;;;;;;4960248;28;25085;-72
2023/05/12 10:01:10;;;;;;;14.45;5.80;;;;;;;;;;4953933;28;25158;-73
2023/05/12 10:03:37;;;;;;;7.93;4.80;;;;;;;;;;4953814;28;25059;-69
2023/05/12 10:06:05;;;;;;;10.48;5.35;;;;;;;;;;4957783;28;25055;-73
2023/05/12 10:08:37;;;;;;;7.43;4.55;;;;;;;;;;4957849;28;25073;-74
2023/05/12 10:11:04;;;;;;;8.87;5.13;;;;;;;;;;4949867;28;25058;-74
2023/05/12 10:13:31;;;;;;;7.55;5.10;;;;;;;;;;4956579;28;25167;-75
2023/05/12 10:15:58;;;;;;;8.60;4.88;;;;;;;;;;4958435;28;25084;-72
2023/05/12 10:18:24;;;;;;;7.53;4.85;;;;;;;;;;4960449;28;25063;-71
2023/05/12 10:20:51;;;;;;;5.70;4.50;;;;;;;;;;4959582;28;25080;-74
2023/05/12 10:23:18;;;;;;;3.55;3.20;;;;;;;;;;4960534;28;25144;-74
2023/05/12 10:25:44;;;;;;;4.65;3.20;;;;;;;;;;4960204;28;25177;-71
2023/05/12 10:28:10;;;;;;;5.82;3.88;;;;;;;;;;4951341;28;25070;-72
2023/05/12 10:30:37;;;;;;;4.68;3.55;;;;;;;;;;4950198;28;25067;-72
2023/05/12 10:33:04;;;;;;;4.90;3.38;;;;;;;;;;4953050;28;25141;-73
2023/05/12 10:35:33;;;;;;;4.82;3.92;;;;;;;;;;4961685;28;25061;-72
2023/05/12 10:38:05;;;;;;;4.05;3.58;;;;;;;;;;4950055;28;25054;-72
2023/05/12 10:40:31;;;;;;;;;;;;;;;;;;4950492;28;25126;-74
2023/05/12 10:42:59;;;;;;;5.50;3.85;;;;;;;;;;4948983;28;24164;-71
2023/05/12 10:45:25;;;;;;;7.03;4.13;;;;;;;;;;4948395;28;25077;-72
2023/05/12 10:47:51;;;;;;;10.00;4.75;;;;;;;;;;4957284;28;25047;-73
2023/05/12 10:50:27;;;;;;;4.88;4.25;;;;;;;;;;4956672;28;25101;-72
2023/05/12 10:52:53;;;;;;;7.10;4.78;;;;;;;;;;4949482;28;25064;-72
2023/05/12 10:55:29;;;;;;;7.38;4.25;;;;;;;;;;4948246;28;25085;-73
2023/05/12 10:58:03;;;;;;;5.93;4.22;;;;;;;;;;4952008;28;25058;-74
2023/05/12 11:00:29;;;;;;;5.00;4.28;;;;;;;;;;4942178;28;25085;-76
2023/05/12 11:02:55;;;;;;;7.13;4.65;;;;;;;;;;4954068;28;25081;-74
2023/05/12 11:05:21;;;;;;;16.90;5.75;;;;;;;;;;4949058;28;25072;-74
2023/05/12 11:07:48;;;;;;;28.10;8.30;;;;;;;;;;4951921;28;25063;-71
2023/05/12 11:10:14;;;;;;;14.00;5.13;;;;;;;;;;4950269;28;25110;-72
2023/05/12 11:12:42;;;;;;;6.97;4.35;;;;;;;;;;4950945;28;25075;-71
2023/05/12 11:15:08;;;;;;;6.40;4.03;;;;;;;;;;4951058;28;25076;-75
2023/05/12 11:17:37;;;;;;;6.18;3.33;;;;;;;;;;4949396;28;25514;-71
2023/05/12 11:20:03;;;;;;;10.43;3.38;;;;;;;;;;4949064;28;25072;-71
2023/05/12 11:22:29;;;;;;;3.90;2.70;;;;;;;;;;4954909;28;25061;-71
2023/05/12 11:24:55;;;;;;;22.52;4.95;;;;;;;;;;4948509;28;25063;-74
2023/05/12 11:27:22;;;;;;;5.45;3.05;;;;;;;;;;4947278;28;25108;-74
2023/05/12 11:29:58;;;;;;;2.42;2.22;;;;;;;;;;4948398;28;25071;-74
2023/05/12 11:32:24;;;;;;;6.93;2.15;;;;;;;;;;4951900;28;25068;-72
2023/05/12 11:34:50;;;;;;;3.60;2.50;;;;;;;;;;4946654;28;25082;-72
2023/05/12 11:37:19;;;;;;;5.35;2.13;;;;;;;;;;4957786;28;25070;-71
2023/05/12 11:39:45;;;;;;;6.47;2.17;;;;;;;;;;4949871;28;25168;-73
2023/05/12 11:42:11;;;;;;;3.13;2.08;;;;;;;;;;4954011;28;25082;-74
2023/05/12 11:44:45;;;;;;;11.80;3.50;;;;;;;;;;4947254;28;25151;-69
2023/05/12 11:47:12;;;;;;;10.90;3.40;;;;;;;;;;4946739;28;25082;-73
2023/05/12 11:49:54;;;;;;;10.15;3.13;;;;;;;;;;4946437;28;25145;-72
2023/05/12 11:52:21;;;;;;;8.15;2.40;;;;;;;;;;4958620;28;25065;-71
2023/05/12 11:54:48;;;;;;;1.73;1.63;;;;;;;;;;4950670;28;25083;-74
2023/05/12 11:57:24;;;;;;;3.58;1.70;;;;;;;;;;4956123;28;25146;-73
2023/05/12 11:59:56;;;;;;;5.45;2.53;;;;;;;;;;4947183;28;25049;-72
2023/05/12 12:02:22;;;;;;;17.63;3.53;;;;;;;;;;4950073;28;25075;-76
2023/05/12 12:04:48;;;;;;;13.82;3.47;;;;;;;;;;4951997;28;25050;-75
2023/05/12 12:07:14;;;;;;;14.43;2.60;;;;;;;;;;4948083;28;25127;-73
2023/05/12 12:09:40;;;;;;;4.70;2.22;;;;;;;;;;4948152;28;25117;-73
2023/05/12 12:12:07;;;;;;;5.32;2.60;;;;;;;;;;4949412;28;25135;-74
2023/05/12 12:14:34;;;;;;;9.18;2.72;;;;;;;;;;4952775;28;25053;-73
2023/05/12 12:17:00;;;;;;;12.60;3.28;;;;;;;;;;4960631;28;25141;-72
2023/05/12 12:19:27;;;;;;;10.75;2.65;;;;;;;;;;4952886;28;25060;-70
2023/05/12 12:21:53;;;;;;;13.30;2.85;;;;;;;;;;4949429;28;25098;-74
2023/05/12 12:24:19;;;;;;;26.65;4.00;;;;;;;;;;4955946;28;25127;-71
2023/05/12 12:26:45;;;;;;;15.30;2.75;;;;;;;;;;4950188;28;25068;-71
2023/05/12 12:29:11;;;;;;;6.47;2.50;;;;;;;;;;4948516;28;25113;-72
2023/05/12 12:31:37;;;;;;;9.90;3.75;;;;;;;;;;4956096;28;25165;-72
2023/05/12 12:34:03;;;;;;;18.50;3.15;;;;;;;;;;4946809;28;25075;-72
2023/05/12 12:36:31;;;;;;;13.52;3.30;;;;;;;;;;4943555;28;25069;-72
2023/05/12 12:38:57;;;;;;;10.27;4.00;;;;;;;;;;4947246;28;25064;-72
2023/05/12 12:41:22;;;;;;;8.70;2.85;;;;;;;;;;4945884;28;25057;-71
2023/05/12 12:43:49;;;;;;;6.95;2.90;;;;;;;;;;4956889;28;25134;-72
2023/05/12 12:46:15;;;;;;;5.82;1.70;;;;;;;;;;4950617;28;25068;-70
2023/05/12 12:48:41;;;;;;;7.65;2.33;;;;;;;;;;4964757;28;25060;-71
2023/05/12 12:51:07;;;;;;;5.10;2.20;;;;;;;;;;4947019;28;25046;-71
2023/05/12 12:53:34;;;;;;;9.48;3.05;;;;;;;;;;4950512;28;25144;-72
2023/05/12 12:56:00;;;;;;;8.25;2.00;;;;;;;;;;4947155;28;25072;-72
2023/05/12 12:58:26;;;;;;;9.13;2.85;;;;;;;;;;4954631;28;25118;-76
2023/05/12 13:00:52;;;;;;;9.02;2.55;;;;;;;;;;4946304;28;25152;-71
2023/05/12 13:03:18;;;;;;;2.72;1.95;;;;;;;;;;4945706;28;25150;-72
2023/05/12 13:05:44;;;;;;;3.53;2.03;;;;;;;;;;4950668;28;25105;-73
2023/05/12 13:08:11;;;;;;;2.13;1.75;;;;;;;;;;4945544;28;25082;-72
2023/05/12 13:10:37;;;;;;;3.22;2.30;;;;;;;;;;4946069;28;25074;-72
2023/05/12 13:13:03;;;;;;;3.35;2.35;;;;;;;;;;4948869;28;25062;-73
2023/05/12 13:15:31;;;;;;;2.45;2.08;;;;;;;;;;4950262;28;25056;-71
2023/05/12 13:17:57;;;;;;;4.70;2.90;;;;;;;;;;4951271;28;25146;-73
2023/05/12 13:20:23;;;;;;;6.90;3.00;;;;;;;;;;4949573;28;25139;-72
2023/05/12 13:22:49;;;;;;;5.85;2.50;;;;;;;;;;4953309;28;25147;-73
2023/05/12 13:25:15;;;;;;;4.05;2.25;;;;;;;;;;4948555;28;25069;-71
2023/05/12 13:27:40;;;;;;;4.28;2.72;;;;;;;;;;4950516;28;25068;-73
2023/05/12 13:30:07;;;;;;;1.98;1.80;;;;;;;;;;4948464;28;25083;-71
2023/05/12 13:32:33;;;;;;;4.13;2.13;;;;;;;;;;4951229;28;25072;-72
2023/05/12 13:35:00;;;;;;;2.75;2.47;;;;;;;;;;4949595;28;25113;-72
2023/05/12 13:37:26;;;;;;;3.25;2.05;;;;;;;;;;4953533;28;25072;-75
2023/05/12 13:39:52;;;;;;;5.90;2.65;;;;;;;;;;4949196;28;25137;-74
2023/05/12 13:42:20;;;;;;;4.53;2.17;;;;;;;;;;4949633;28;25141;-73
2023/05/12 13:44:47;;;;;;;2.30;1.98;;;;;;;;;;4949741;28;25133;-71
2023/05/12 13:47:13;;;;;;;5.53;2.30;;;;;;;;;;4948646;28;25124;-75
2023/05/12 13:49:39;;;;;;;4.35;2.63;;;;;;;;;;4950009;28;25083;-72
2023/05/12 13:52:06;;;;;;;3.20;2.58;;;;;;;;;;4949154;28;25059;-72
2023/05/12 13:54:33;;;;;;;2.15;1.95;;;;;;;;;;4947920;28;25054;-74
2023/05/12 13:57:03;;;;;;;3.58;2.08;;;;;;;;;;4948164;28;25143;-76
2023/05/12 13:59:29;;;;;;;9.27;2.10;;;;;;;;;;4949601;28;25062;-73
2023/05/12 14:01:55;;;;;;;2.30;2.10;;;;;;;;;;4965469;28;25127;-76
2023/05/12 14:04:21;;;;;;;2.03;1.88;;;;;;;;;;4952130;28;25097;-75
2023/05/12 14:06:48;;;;;;;6.20;2.10;;;;;;;;;;4957422;28;25091;-76
2023/05/12 14:09:14;;;;;;;3.25;2.03;;;;;;;;;;4955767;28;25176;-72
2023/05/12 14:11:40;;;;;;;1.90;1.73;;;;;;;;;;4952941;28;25188;-75
2023/05/12 14:14:07;;;;;;;1.88;1.77;;;;;;;;;;4954345;28;25547;-74
2023/05/12 14:16:32;;;;;;;3.72;1.98;;;;;;;;;;4950828;28;25096;-73
2023/05/12 14:18:59;;;;;;;6.47;2.10;;;;;;;;;;4949593;28;25186;-73
2023/05/12 14:21:25;;;;;;;5.47;1.85;;;;;;;;;;4948154;28;25051;-74
2023/05/12 14:23:51;;;;;;;4.32;1.70;;;;;;;;;;4948323;28;25168;-73